Time;durP1;ratioP1;P1;durP2;ratioP2;P2;SDS_P1;SDS_P2;PMS_P1;PMS_P2;Temp;Humidity;BMP_temperature;BMP_pressure;BME280_temperature;BME280_humidity;BME280_pressure;Samples;Min_cycle;Max_cycle;Signal;HPM_P1;HPM_P2
2021/12/24 00:01:26;;;;;;;;;;;;;;;11.43;100.00;97813.13;4963559;28;20360;-88
2021/12/24 00:04:28;;;;;;;;;;;;;;;;;;;;;
2021/12/24 00:07:41;;;;;;;;;;;;;;;11.04;100.00;97814.63;4948406;28;19948;-88
2021/12/24 00:10:21;;;;;;;;;;;;;;;11.08;100.00;97815.25;4972329;28;19932;-88
2021/12/24 00:12:59;;;;;;;;;;;;;;;11.05;100.00;97821.78;5023065;28;19925;-88
2021/12/24 00:18:18;;;;;;;;;;;;;;;11.53;100.00;97818.31;5018901;28;19940;-88
2021/12/24 00:37:02;;;;;;;;;;;;;;;11.54;100.00;97813.50;5015468;28;20008;-89
2021/12/24 00:39:29;;;;;;;;;;;;;;;11.22;100.00;97809.16;4982730;28;19926;-89
2021/12/24 00:41:57;;;;;;;;;;;;;;;11.42;100.00;97812.34;5023346;28;19925;-88
2021/12/24 00:44:24;;;;;;;;;;;;;;;10.94;100.00;97815.78;5032564;28;19967;-87
2021/12/24 00:46:52;;;;;;;;;;;;;;;11.24;100.00;97809.44;5036244;28;19924;-88
2021/12/24 00:49:22;;;;;;;;;;;;;;;11.03;100.00;97812.28;5029821;28;20387;-88
2021/12/24 00:52:19;;;;;;;;;;;;;;;11.00;100.00;97811.16;5062439;28;19924;-87
2021/12/24 00:57:34;;;;;;;;;;;;;;;11.02;100.00;97813.50;5079332;28;19927;-88
2021/12/24 01:00:03;;;;;;;;;;;;;;;11.25;100.00;97813.81;5045579;28;19943;-88
2021/12/24 01:02:30;;;;;;;;;;;;;;;11.07;100.00;97819.31;5062272;28;20017;-87
2021/12/24 01:04:57;;;;;;;;;;;;;;;10.90;100.00;97820.75;5095270;28;19928;-88
2021/12/24 01:07:44;;;;;;;;;;;;;;;11.15;100.00;97820.56;5056943;28;20022;-88
2021/12/24 01:11:06;;;;;;;;;;;;;;;11.36;100.00;97819.75;5079247;28;19920;-88
2021/12/24 01:13:46;;;;;;;;;;;;;;;11.58;100.00;97819.72;5111134;28;19946;-88
2021/12/24 01:21:08;;;;;;;;;;;;;;;11.35;100.00;97829.41;5067930;28;19969;-88
2021/12/24 01:26:03;;;;;;;;;;;;;;;11.16;100.00;97826.97;5042521;28;20019;-88
2021/12/24 01:28:45;;;;;;;;;;;;;;;10.99;100.00;97821.56;5074882;28;19924;-88
2021/12/24 01:42:40;;;;;;;;;;;;;;;11.45;100.00;97817.00;4997660;28;19930;-89
2021/12/24 01:45:24;;;;;;;;;;;;;;;11.43;100.00;97811.13;4997703;28;20025;-88
2021/12/24 01:47:54;;;;;;;;;;;;;;;11.47;100.00;97811.75;5013743;28;19955;-87
2021/12/24 01:50:21;;;;;;;;;;;;;;;11.52;100.00;97811.16;4997485;28;19953;-88
2021/12/24 01:52:53;;;;;;;;;;;;;;;11.60;100.00;97818.00;4981237;28;19948;-88
2021/12/24 01:55:20;;;;;;;;;;;;;;;11.35;100.00;97812.63;4997370;28;19925;-87
2021/12/24 01:57:47;;;;;;;;;;;;;;;11.35;100.00;97807.03;4997436;28;19972;-88
2021/12/24 02:00:25;;;;;;;;;;;;;;;11.59;100.00;97805.28;4997446;28;19968;-88
2021/12/24 02:02:53;;;;;;;;;;;;;;;11.83;100.00;97809.13;5010470;28;19968;-88
2021/12/24 02:05:20;;;;;;;;;;;;;;;11.67;100.00;97812.19;4993717;28;19926;-89
2021/12/24 02:07:48;;;;;;;;;;;;;;;11.58;100.00;97812.13;4977745;28;19926;-88
2021/12/24 02:10:17;;;;;;;;;;;;;;;11.75;100.00;97824.66;4977434;28;19972;-88
2021/12/24 02:12:45;;;;;;;;;;;;;;;11.62;100.00;97815.56;4996605;28;19930;-88
2021/12/24 02:28:54;;;;;;;;;;;;;;;11.68;100.00;97824.91;5043938;28;19973;-89
2021/12/24 02:31:22;;;;;;;;;;;;;;;11.97;100.00;97822.53;5060781;28;19975;-89
2021/12/24 02:33:50;;;;;;;;;;;;;;;12.10;100.00;97817.59;5060793;28;19969;-89
2021/12/24 02:36:24;;;;;;;;;;;;;;;11.94;100.00;97817.88;5043538;28;19924;-88
2021/12/24 02:38:54;;;;;;;;;;;;;;;11.90;100.00;97820.03;5076642;28;20368;-88
2021/12/24 02:41:22;;;;;;;;;;;;;;;12.18;100.00;97818.84;5043601;28;19924;-88
2021/12/24 02:43:50;;;;;;;;;;;;;;;12.16;100.00;97826.94;5081036;28;19931;-88
2021/12/24 02:46:33;;;;;;;;;;;;;;;11.97;100.00;97814.13;5086832;28;19970;-88
2021/12/24 02:49:10;;;;;;;;;;;;;;;12.03;100.00;97817.88;5069922;28;19924;-89
2021/12/24 02:54:25;;;;;;;;;;;;;;;11.88;100.00;97811.31;5086286;28;19928;-88
2021/12/24 02:56:57;;;;;;;;;;;;;;;12.09;100.00;97804.84;5069959;28;19924;-88
2021/12/24 02:59:28;;;;;;;;;;;;;;;12.08;100.00;97814.47;5045915;28;19948;-88
2021/12/24 03:02:02;;;;;;;;;;;;;;;12.14;100.00;97809.84;5039743;28;20024;-88
2021/12/24 03:04:29;;;;;;;;;;;;;;;12.21;100.00;97812.31;5039367;28;19924;-88
2021/12/24 03:06:59;;;;;;;;;;;;;;;12.18;100.00;97812.47;5063629;28;20018;-88
2021/12/24 03:09:28;;;;;;;;;;;;;;;12.11;100.00;97824.75;5060152;28;19928;-88
2021/12/24 03:11:58;;;;;;;;;;;;;;;11.97;100.00;97825.34;5076405;28;19924;-88
2021/12/24 03:14:26;;;;;;;;;;;;;;;12.02;100.00;97819.13;5059799;28;20484;-88
2021/12/24 03:16:58;;;;;;;;;;;;;;;11.93;100.00;97823.91;5027007;28;20375;-87
2021/12/24 03:19:30;;;;;;;;;;;;;;;11.98;100.00;97814.94;5056001;28;19925;-88
2021/12/24 03:22:06;;;;;;;;;;;;;;;11.93;100.00;97819.13;5056015;28;19925;-88
2021/12/24 03:24:35;;;;;;;;;;;;;;;11.83;100.00;97820.31;5056421;28;19933;-88
2021/12/24 03:27:03;;;;;;;;;;;;;;;11.93;100.00;97824.72;5056230;28;19931;-88
2021/12/24 03:29:32;;;;;;;;;;;;;;;12.04;100.00;97819.44;5039449;28;19924;-88
2021/12/24 03:32:03;;;;;;;;;;;;;;;11.96;100.00;97812.59;5039570;28;19931;-87
2021/12/24 03:34:30;;;;;;;;;;;;;;;12.01;100.00;97823.16;5055920;28;19925;-88
2021/12/24 03:36:59;;;;;;;;;;;;;;;11.97;100.00;97810.56;5059568;28;19941;-88
2021/12/24 03:39:31;;;;;;;;;;;;;;;11.94;100.00;97808.69;5059474;28;19924;-88
2021/12/24 03:42:03;;;;;;;;;;;;;;;11.95;100.00;97815.84;5059172;28;19963;-88
2021/12/24 03:44:40;;;;;;;;;;;;;;;11.97;100.00;97816.94;5026679;28;19963;-89
2021/12/24 03:47:16;;;;;;;;;;;;;;;11.67;100.00;97820.56;5060027;28;19977;-88
2021/12/24 03:50:02;;;;;;;;;;;;;;;11.40;100.00;97826.00;5042791;28;19924;-88
2021/12/24 03:53:00;;;;;;;;;;;;;;;11.68;100.00;97830.50;5042932;28;20025;-88
2021/12/24 03:55:23;;;;;;;;;;;;;;;11.97;100.00;97816.94;5038614;28;19924;-87
2021/12/24 03:57:50;;;;;;;;;;;;;;;11.81;100.00;97817.22;5072380;28;19948;-87
2021/12/24 04:00:36;;;;;;;;;;;;;;;11.43;100.00;97811.13;5070114;28;19947;-87
2021/12/24 04:03:22;;;;;;;;;;;;;;;11.64;100.00;97823.50;5041794;28;19985;-89
2021/12/24 04:06:08;;;;;;;;;;;;;;;11.85;100.00;97823.44;5069366;28;19924;-88
2021/12/24 04:08:38;;;;;;;;;;;;;;;11.45;100.00;97814.22;5056635;28;20011;-88
2021/12/24 04:11:29;;;;;;;;;;;;;;;11.72;100.00;97827.59;5075659;28;19929;-88
2021/12/24 04:14:21;;;;;;;;;;;;;;;11.80;100.00;97815.63;5039208;28;19924;-88
2021/12/24 04:16:48;;;;;;;;;;;;;;;11.66;100.00;97816.19;5039509;28;20343;-87
2021/12/24 04:19:26;;;;;;;;;;;;;;;11.96;100.00;97818.19;5039155;28;19993;-87
2021/12/24 04:24:52;;;;;;;;;;;;;;;11.63;100.00;97813.56;5041730;28;19977;-88
2021/12/24 04:27:22;;;;;;;;;;;;;;;11.08;100.00;97812.47;5038679;28;19925;-88
2021/12/24 04:29:49;;;;;;;;;;;;;;;11.34;100.00;97822.25;5038674;28;19924;-88
2021/12/24 04:32:25;;;;;;;;;;;;;;;11.71;100.00;97828.81;5039119;28;20019;-88
2021/12/24 04:35:15;;;;;;;;;;;;;;;11.64;100.00;97820.72;5069735;28;19924;-88
2021/12/24 04:51:22;;;;;;;;;;;;;;;10.96;100.00;97842.03;5059205;28;19958;-88
2021/12/24 05:02:53;;;;;;;;;;;;;;;11.73;100.00;97834.72;5051170;28;19924;-88
2021/12/24 05:05:37;;;;;;;;;;;;;;;11.80;100.00;97834.47;5086418;28;19924;-88
2021/12/24 05:10:38;;;;;;;;;;;;;;;11.48;100.00;97827.28;5024973;28;21072;-88
2021/12/24 05:13:10;;;;;;;;;;;;;;;11.49;100.00;97825.28;5058392;28;19931;-88
2021/12/24 05:16:06;;;;;;;;;;;;;;;11.33;100.00;97823.47;5067011;28;19925;-88
2021/12/24 05:21:51;;;;;;;;;;;;;;;11.58;100.00;97820.50;5055333;28;19932;-88
2021/12/24 05:24:20;;;;;;;;;;;;;;;11.32;100.00;97815.53;5033550;28;20381;-87
2021/12/24 05:26:48;;;;;;;;;;;;;;;11.21;100.00;97810.34;5037933;28;19931;-88
2021/12/24 05:29:16;;;;;;;;;;;;;;;11.17;100.00;97806.94;5053052;28;19936;-87
2021/12/24 05:31:44;;;;;;;;;;;;;;;10.77;100.00;97812.41;5038251;28;19925;-88
2021/12/24 05:34:14;;;;;;;;;;;;;;;10.80;100.00;97807.91;5064051;28;19959;-87
2021/12/24 05:36:43;;;;;;;;;;;;;;;10.99;100.00;97804.03;5057907;28;19970;-87
2021/12/24 05:39:10;;;;;;;;;;;;;;;10.81;100.00;97804.66;5058257;28;19924;-88
2021/12/24 05:41:39;;;;;;;;;;;;;;;10.61;100.00;97809.81;5042098;28;19931;-87
2021/12/24 05:44:09;;;;;;;;;;;;;;;10.40;100.00;97796.63;5054197;28;20032;-87
2021/12/24 05:46:40;;;;;;;;;;;;;;;10.01;100.00;97801.94;5005978;28;19924;-87
2021/12/24 05:49:15;;;;;;;;;;;;;;;9.92;100.00;97801.84;5037968;28;19924;-87
2021/12/24 05:52:01;;;;;;;;;;;;;;;10.01;100.00;97804.72;5021239;28;20571;-87
2021/12/24 05:54:41;;;;;;;;;;;;;;;10.00;100.00;97803.16;5054425;28;19931;-87
2021/12/24 05:57:20;;;;;;;;;;;;;;;10.13;100.00;97795.59;5021588;28;19975;-87
2021/12/24 05:59:47;;;;;;;;;;;;;;;10.26;100.00;97801.91;5037680;28;19932;-88
2021/12/24 06:02:18;;;;;;;;;;;;;;;10.45;100.00;97807.19;5022097;28;19944;-87
2021/12/24 06:04:46;;;;;;;;;;;;;;;10.64;100.00;97808.13;5055395;28;19982;-88
2021/12/24 06:07:14;;;;;;;;;;;;;;;10.82;100.00;97808.25;5037722;28;20008;-88
2021/12/24 06:09:41;;;;;;;;;;;;;;;10.95;100.00;97801.34;5054247;28;19929;-89
2021/12/24 06:12:09;;;;;;;;;;;;;;;11.08;100.00;97806.88;5037574;28;19924;-88
2021/12/24 06:14:36;;;;;;;;;;;;;;;11.17;100.00;97806.94;5021216;28;20445;-88
2021/12/24 06:17:09;;;;;;;;;;;;;;;11.30;100.00;97804.81;5054280;28;20332;-88
2021/12/24 06:19:37;;;;;;;;;;;;;;;11.10;100.00;97796.03;5020810;28;19924;-88
2021/12/24 06:22:04;;;;;;;;;;;;;;;11.05;100.00;97805.00;5037155;28;19929;-89
2021/12/24 06:24:31;;;;;;;;;;;;;;;10.95;100.00;97806.94;5020688;28;19948;-88
2021/12/24 06:26:58;;;;;;;;;;;;;;;10.94;100.00;97804.59;5053442;28;20376;-88
2021/12/24 06:29:25;;;;;;;;;;;;;;;11.25;100.00;97808.22;5021271;28;20326;-89
2021/12/24 06:31:56;;;;;;;;;;;;;;;11.16;100.00;97804.59;5037117;28;19931;-88
2021/12/24 06:34:26;;;;;;;;;;;;;;;11.33;100.00;97795.50;5017526;28;19925;-88
2021/12/24 06:36:53;;;;;;;;;;;;;;;11.29;100.00;97797.69;5048073;28;19932;-89
2021/12/24 06:39:21;;;;;;;;;;;;;;;11.31;100.00;97800.00;5001274;28;19972;-88
2021/12/24 06:41:48;;;;;;;;;;;;;;;11.43;100.00;97797.13;5016895;28;19934;-89
2021/12/24 06:44:15;;;;;;;;;;;;;;;11.42;100.00;97792.75;5033355;28;19925;-88
2021/12/24 06:46:43;;;;;;;;;;;;;;;11.45;100.00;97789.03;5049983;28;19932;-88
2021/12/24 06:49:11;;;;;;;;;;;;;;;11.32;100.00;97788.38;5033044;28;19925;-87
2021/12/24 06:51:41;;;;;;;;;;;;;;;11.34;100.00;97788.69;5033510;28;19925;-89
2021/12/24 06:54:10;;;;;;;;;;;;;;;11.24;100.00;97789.13;5017135;28;19975;-89
2021/12/24 06:56:39;;;;;;;;;;;;;;;11.14;100.00;97782.69;5016425;28;19925;-89
2021/12/24 06:59:07;;;;;;;;;;;;;;;11.14;100.00;97782.69;5049660;28;19929;-88
2021/12/24 07:01:44;;;;;;;;;;;;;;;11.07;100.00;97782.97;5031807;28;20032;-88
2021/12/24 07:04:14;;;;;;;;;;;;;;;11.10;100.00;97784.84;5000974;28;19936;-88
2021/12/24 07:06:45;;;;;;;;;;;;;;;10.86;100.00;97775.38;5033134;28;19932;-88
2021/12/24 07:09:13;;;;;;;;;;;;;;;10.97;100.00;97786.94;5033435;28;19932;-87
2021/12/24 07:11:41;;;;;;;;;;;;;;;10.75;100.00;97784.13;5037625;28;19932;-88
2021/12/24 07:14:11;;;;;;;;;;;;;;;10.22;100.00;97776.88;5000818;28;19936;-88
2021/12/24 07:16:38;;;;;;;;;;;;;;;10.11;100.00;97786.88;5033167;28;19933;-89
2021/12/24 07:19:09;;;;;;;;;;;;;;;10.39;100.00;97785.91;5033628;28;19972;-87
2021/12/24 07:21:36;;;;;;;;;;;;;;;10.22;100.00;97781.72;5023207;28;19944;-88
2021/12/24 07:24:04;;;;;;;;;;;;;;;10.38;100.00;97784.31;5052848;28;19925;-88
2021/12/24 07:26:31;;;;;;;;;;;;;;;9.96;100.00;97782.97;5016246;28;19925;-88
2021/12/24 07:29:01;;;;;;;;;;;;;;;10.10;100.00;97783.28;5065288;28;19925;-88
2021/12/24 07:31:28;;;;;;;;;;;;;;;10.18;100.00;97792.19;5049309;28;19925;-88
2021/12/24 07:33:56;;;;;;;;;;;;;;;10.38;100.00;97795.50;5049389;28;19925;-87
2021/12/24 07:36:23;;;;;;;;;;;;;;;10.73;100.00;97799.81;5012188;28;20011;-87
2021/12/24 07:38:50;;;;;;;;;;;;;;;10.98;100.00;97806.03;5036279;28;19925;-88
2021/12/24 07:41:18;;;;;;;;;;;;;;;11.23;100.00;97804.31;5031229;28;20418;-87
2021/12/24 07:43:48;;;;;;;;;;;;;;;11.32;100.00;97807.16;5040212;28;20024;-86
2021/12/24 07:46:19;;;;;;;;;;;;;;;10.98;100.00;97813.63;5039933;28;20279;-85
2021/12/24 07:48:49;;;;;;;;;;;;;;;11.31;100.00;97808.41;5023780;28;19924;-87
2021/12/24 07:54:03;;;;;;;;;;;;;;;11.11;100.00;97819.94;5069428;28;19925;-85
2021/12/24 07:56:31;;;;;;;;;;;;;;;11.54;100.00;97819.09;5059084;28;20012;-86
2021/12/24 07:58:58;;;;;;;;;;;;;;;11.56;100.00;97822.97;5068833;28;19925;-82
2021/12/24 08:01:26;;;;;;;;;;;;;;;11.56;100.00;97811.00;5055946;28;19925;-80
2021/12/24 08:03:54;;;;;;;;;;;;;;;11.15;100.00;97812.19;5071745;28;19924;-80
2021/12/24 08:06:23;;;;;;;;;;;;;;;11.40;100.00;97820.41;5052182;28;19940;-82
2021/12/24 08:08:50;;;;;;;;;;;;;;;11.51;100.00;97822.81;5046839;28;19925;-83
2021/12/24 08:11:17;;;;;;;;;;;;;;;11.59;100.00;97822.06;5072625;28;20352;-87
2021/12/24 08:13:45;;;;;;;;;;;;;;;11.52;100.00;97832.75;5071731;28;19931;-88
2021/12/24 08:16:13;;;;;;;;;;;;;;;11.60;100.00;97834.03;5072287;28;19925;-83
2021/12/24 08:18:44;;;;;;;;;;;;;;;11.56;100.00;97833.38;5050986;28;20027;-86
2021/12/24 08:21:12;;;;;;;;;;;;;;;11.67;100.00;97836.56;5069689;28;19967;-87
2021/12/24 08:23:41;;;;;;;;;;;;;;;11.70;100.00;97839.25;5071394;28;20292;-88
2021/12/24 08:26:08;;;;;;;;;;;;;;;11.71;100.00;97824.00;5073976;28;19993;-88
2021/12/24 08:28:35;;;;;;;;;;;;;;;11.73;100.00;97815.13;5073605;28;19925;-90
2021/12/24 08:31:03;;;;;;;;;;;;;;;11.70;100.00;97816.84;5074593;28;20299;-90
2021/12/24 08:33:37;;;;;;;;;;;;;;;11.67;100.00;97814.97;5074540;28;19932;-89
2021/12/24 08:36:05;;;;;;;;;;;;;;;11.69;100.00;97809.69;5057519;28;19925;-87
2021/12/24 08:38:33;;;;;;;;;;;;;;;11.49;100.00;97817.66;5058807;28;19947;-89
2021/12/24 08:41:03;;;;;;;;;;;;;;;11.71;100.00;97812.81;5048924;28;19953;-88
2021/12/24 08:43:34;;;;;;;;;;;;;;;11.59;100.00;97824.06;5039979;28;20015;-89
2021/12/24 08:46:01;;;;;;;;;;;;;;;11.71;100.00;97821.19;5072379;28;19964;-90
2021/12/24 08:48:28;;;;;;;;;;;;;;;11.17;100.00;97825.72;5039334;28;20395;-88
2021/12/24 08:50:55;;;;;;;;;;;;;;;11.22;100.00;97823.13;5022382;28;20019;-87
2021/12/24 08:53:23;;;;;;;;;;;;;;;11.32;100.00;97816.34;5055531;28;19924;-85
2021/12/24 08:55:50;;;;;;;;;;;;;;;11.44;100.00;97820.25;5039427;28;20364;-88
2021/12/24 08:58:21;;;;;;;;;;;;;;;11.62;100.00;97821.16;5039283;28;20390;-88
2021/12/24 09:00:48;;;;;;;;;;;;;;;11.74;100.00;97816.72;5022302;28;20395;-86
2021/12/24 09:03:15;;;;;;;;;;;;;;;11.69;100.00;97828.50;5038787;28;20471;-86
2021/12/24 09:05:46;;;;;;;;;;;;;;;11.71;100.00;97818.41;5038422;28;20387;-85
2021/12/24 09:08:13;;;;;;;;;;;;;;;11.74;100.00;97811.88;5046157;28;19925;-85
2021/12/24 09:10:41;;;;;;;;;;;;;;;11.50;100.00;97818.44;5035362;28;19925;-79
2021/12/24 09:13:08;;;;;;;;;;;;;;;11.50;100.00;97819.22;5035641;28;20284;-81
2021/12/24 09:15:35;;;;;;;;;;;;;;;11.72;100.00;97819.94;5036726;28;19929;-82
2021/12/24 09:18:02;;;;;;;;;;;;;;;11.79;100.00;97819.69;5051933;28;19987;-80
2021/12/24 09:20:37;;;;;;;;;;;;;;;11.77;100.00;97821.41;5054678;28;19932;-83
2021/12/24 09:23:05;;;;;;;;;;;;;;;11.65;100.00;97819.47;5055063;28;20371;-83
2021/12/24 09:25:32;;;;;;;;;;;;;;;11.73;100.00;97821.53;5087628;28;19924;-81
2021/12/24 09:28:00;;;;;;;;;;;;;;;11.86;100.00;97824.97;5067889;28;19975;-83
2021/12/24 09:30:28;;;;;;;;;;;;;;;11.82;100.00;97827.16;5015225;28;19925;-82
2021/12/24 09:32:55;;;;;;;;;;;;;;;11.85;100.00;97822.66;5031472;28;19925;-84
2021/12/24 09:35:24;;;;;;;;;;;;;;;11.92;100.00;97817.53;5049396;28;19926;-84
2021/12/24 09:37:52;;;;;;;;;;;;;;;11.98;100.00;97814.94;5035169;28;19932;-83
2021/12/24 09:40:21;;;;;;;;;;;;;;;11.64;100.00;97821.50;5063919;28;19924;-82
2021/12/24 09:42:48;;;;;;;;;;;;;;;11.45;100.00;97819.81;5061114;28;19928;-81
2021/12/24 09:45:16;;;;;;;;;;;;;;;11.66;100.00;97815.44;5060265;28;19924;-82
2021/12/24 09:47:44;;;;;;;;;;;;;;;11.82;100.00;97813.16;5061702;28;20275;-81
2021/12/24 09:50:13;;;;;;;;;;;;;;;12.01;100.00;97814.75;5078416;28;19935;-80
2021/12/24 09:52:44;;;;;;;;;;;;;;;12.10;100.00;97809.19;5064986;28;19924;-79
2021/12/24 09:55:16;;;;;;;;;;;;;;;12.00;100.00;97818.81;5095788;28;19931;-81
2021/12/24 09:57:44;;;;;;;;;;;;;;;11.54;100.00;97814.25;5057712;28;19932;-80
2021/12/24 10:00:12;;;;;;;;;;;;;;;11.77;100.00;97816.56;5072629;28;19933;-79
2021/12/24 10:02:45;;;;;;;;;;;;;;;11.91;100.00;97821.59;5095438;28;19923;-79
2021/12/24 10:05:23;;;;;;;;;;;;;;;11.94;100.00;97820.66;5098724;28;20038;-81
2021/12/24 10:07:50;;;;;;;;;;;;;;;12.14;100.00;97807.03;5069921;28;19932;-78
2021/12/24 10:10:31;;;;;;;;;;;;;;;11.97;100.00;97816.16;5070766;28;19924;-82
2021/12/24 10:13:25;;;;;;;;;;;;;;;11.71;100.00;97817.63;5063656;28;19931;-80
2021/12/24 10:15:55;;;;;;;;;;;;;;;11.64;100.00;97812.31;5099506;28;19947;-80
2021/12/24 10:21:57;;;;;;;;;;;;;;;11.15;100.00;97805.84;5091315;28;20017;-81
2021/12/24 10:24:26;;;;;;;;;;;;;;;11.02;100.00;97799.53;5065532;28;19924;-79
2021/12/24 10:27:01;;;;;;;;;;;;;;;11.24;100.00;97789.13;5091500;28;19925;-80
2021/12/24 10:29:28;;;;;;;;;;;;;;;11.40;100.00;97791.66;5081742;28;19935;-80
2021/12/24 10:31:56;;;;;;;;;;;;;;;11.50;100.00;97791.25;5059526;28;19925;-78
2021/12/24 10:34:25;;;;;;;;;;;;;;;11.25;100.00;97791.44;5066384;28;19924;-82
2021/12/24 10:36:58;;;;;;;;;;;;;;;11.43;100.00;97790.75;5060032;28;19928;-80
2021/12/24 10:39:25;;;;;;;;;;;;;;;11.18;100.00;97776.97;5094613;28;19924;-79
2021/12/24 10:41:54;;;;;;;;;;;;;;;11.67;100.00;97778.59;5084124;28;19932;-79
2021/12/24 10:44:21;;;;;;;;;;;;;;;11.83;100.00;97778.34;5097428;28;19924;-80
2021/12/24 10:47:06;;;;;;;;;;;;;;;11.95;100.00;97777.44;5091250;28;19924;-81
2021/12/24 10:49:59;;;;;;;;;;;;;;;11.87;100.00;97781.78;5079727;28;19935;-81
2021/12/24 10:52:42;;;;;;;;;;;;;;;11.72;100.00;97786.38;5088693;28;19924;-81
2021/12/24 10:59:50;;;;;;;;;;;;;;;11.64;100.00;97787.91;4992890;28;20016;-81
2021/12/24 11:05:40;;;;;;;;;;;;;;;11.66;100.00;97799.41;4964675;28;20013;-81
2021/12/24 11:08:17;;;;;;;;;;;;;;;11.39;100.00;97802.06;4973309;28;20346;-80
2021/12/24 11:11:06;;;;;;;;;;;;;;;11.42;100.00;97806.75;4986452;28;19934;-81
2021/12/24 11:13:42;;;;;;;;;;;;;;;11.61;100.00;97805.59;4971529;28;19930;-82
2021/12/24 11:19:51;;;;;;;;;;;;;;;11.71;100.00;97806.41;4996547;28;20017;-80
2021/12/24 11:22:20;;;;;;;;;;;;;;;11.69;100.00;97803.31;4973451;28;19949;-79
2021/12/24 11:30:52;;;;;;;;;;;;;;;11.83;100.00;97803.53;4975061;28;19925;-81
2021/12/24 11:33:27;;;;;;;;;;;;;;;11.91;100.00;97798.41;4992654;28;19988;-82
2021/12/24 11:35:55;;;;;;;;;;;;;;;12.09;100.00;97799.25;5030925;28;19924;-81
2021/12/24 11:38:24;;;;;;;;;;;;;;;11.98;100.00;97792.53;5064315;28;19924;-79
2021/12/24 11:40:52;;;;;;;;;;;;;;;11.59;100.00;97794.09;5086836;28;19925;-79
2021/12/24 11:47:08;;;;;;;;;;;;;;;11.55;100.00;97798.25;5061172;28;20026;-79
2021/12/24 11:50:00;;;;;;;;;;;;;;;11.93;100.00;97791.13;5076844;28;19982;-80
2021/12/24 11:52:48;;;;;;;;;;;;;;;11.18;100.00;97790.94;5060836;28;20409;-79
2021/12/24 11:55:17;;;;;;;;;;;;;;;10.86;100.00;97794.91;5068717;28;20010;-79
2021/12/24 11:57:55;;;;;;;;;;;;;;;10.74;100.00;97787.38;5083367;28;19999;-79
2021/12/24 12:00:36;;;;;;;;;;;;;;;10.49;100.00;97793.09;5070499;28;19924;-80
2021/12/24 12:06:44;;;;;;;;;;;;;;;10.10;100.00;97807.66;5092964;28;19920;-79
2021/12/24 12:09:14;;;;;;;;;;;;;;;10.26;100.00;97807.47;5098194;28;20272;-79
2021/12/24 12:11:46;;;;;;;;;;;;;;;10.12;100.00;97805.16;5091351;28;19931;-81
2021/12/24 12:14:17;;;;;;;;;;;;;;;10.08;100.00;97815.69;5061992;28;19923;-79
2021/12/24 12:16:46;;;;;;;;;;;;;;;10.02;100.00;97803.50;5056637;28;19929;-79
2021/12/24 12:19:37;;;;;;;;;;;;;;;10.11;100.00;97806.41;5067656;28;20415;-80
2021/12/24 12:22:11;;;;;;;;;;;;;;;10.01;100.00;97794.34;5054149;28;19931;-80
2021/12/24 12:24:58;;;;;;;;;;;;;;;9.84;100.00;97797.72;5090672;28;19950;-80
2021/12/24 12:27:27;;;;;;;;;;;;;;;9.78;100.00;97800.31;5078484;28;19924;-79
2021/12/24 12:30:16;;;;;;;;;;;;;;;9.67;100.00;97804.66;5097226;28;19931;-78
2021/12/24 12:32:43;;;;;;;;;;;;;;;9.74;100.00;97812.81;5078861;28;19924;-79
2021/12/24 12:38:51;;;;;;;;;;;;;;;9.96;100.00;97806.09;5079453;28;19939;-79
2021/12/24 12:41:18;;;;;;;;;;;;;;;9.82;100.00;97805.75;5085318;28;20291;-79
2021/12/24 12:43:50;;;;;;;;;;;;;;;9.46;100.00;97805.34;5093696;28;19931;-80
2021/12/24 12:46:19;;;;;;;;;;;;;;;9.74;100.00;97807.22;5077374;28;19924;-79
2021/12/24 12:48:49;;;;;;;;;;;;;;;9.73;100.00;97809.22;5076748;28;20287;-80
2021/12/24 12:51:19;;;;;;;;;;;;;;;9.81;100.00;97807.00;5076763;28;20012;-82
2021/12/24 12:53:47;;;;;;;;;;;;;;;9.75;100.00;97811.56;5059484;28;20268;-80
2021/12/24 12:56:30;;;;;;;;;;;;;;;9.45;100.00;97801.00;5058987;28;19928;-81
2021/12/24 12:58:57;;;;;;;;;;;;;;;9.49;100.00;97801.66;5075542;28;19929;-79
2021/12/24 13:01:25;;;;;;;;;;;;;;;9.62;100.00;97800.41;5062376;28;19931;-80
2021/12/24 13:03:55;;;;;;;;;;;;;;;9.73;100.00;97794.50;5079135;28;19924;-79
2021/12/24 13:06:46;;;;;;;;;;;;;;;9.47;100.00;97798.53;5069437;28;19928;-79
2021/12/24 13:09:16;;;;;;;;;;;;;;;9.45;100.00;97792.63;5077356;28;19928;-80
2021/12/24 13:11:45;;;;;;;;;;;;;;;9.55;100.00;97794.28;5067261;28;20387;-82
2021/12/24 13:14:16;;;;;;;;;;;;;;;9.29;100.00;97785.16;5058320;28;19930;-84
2021/12/24 13:16:48;;;;;;;;;;;;;;;9.68;100.00;97792.28;5057538;28;19932;-82
2021/12/24 13:24:48;;;;;;;;;;;;;;;9.53;100.00;97796.72;5095988;28;19924;-78
2021/12/24 13:27:17;;;;;;;;;;;;;;;9.42;100.00;97790.72;5085245;28;19924;-79
2021/12/24 13:29:44;;;;;;;;;;;;;;;9.45;100.00;97789.84;5055755;28;19932;-83
2021/12/24 13:32:11;;;;;;;;;;;;;;;9.65;100.00;97793.94;5075807;28;19931;-84
2021/12/24 13:34:40;;;;;;;;;;;;;;;9.35;100.00;97799.31;5053977;28;19939;-82
2021/12/24 13:37:12;;;;;;;;;;;;;;;9.24;100.00;97796.09;5089236;28;20433;-77
2021/12/24 13:39:47;;;;;;;;;;;;;;;9.14;100.00;97793.19;5083508;28;19932;-77
2021/12/24 13:42:15;;;;;;;;;;;;;;;9.09;100.00;97785.34;5083316;28;19931;-85
2021/12/24 13:44:42;;;;;;;;;;;;;;;9.13;100.00;97786.03;5073177;28;19931;-77
2021/12/24 13:47:15;;;;;;;;;;;;;;;9.02;100.00;97793.94;5088194;28;19924;-78
2021/12/24 13:55:29;;;;;;;;;;;;;;;9.03;100.00;97791.91;5065345;28;20309;-79
2021/12/24 13:58:04;;;;;;;;;;;;;;;9.05;100.00;97787.47;5083297;28;20387;-78
2021/12/24 14:05:24;;;;;;;;;;;;;;;9.14;100.00;97789.59;5013020;28;19924;-79
2021/12/24 14:08:08;;;;;;;;;;;;;;;9.04;100.00;97794.25;5014724;28;19925;-78
2021/12/24 14:10:36;;;;;;;;;;;;;;;8.96;100.00;97790.16;5036834;28;19952;-77
2021/12/24 14:22:23;;;;;;;;;;;;;;;8.73;100.00;97776.50;4937287;29;20290;-76
2021/12/24 14:24:55;;;;;;;;;;;;;;;8.93;100.00;97770.75;4953672;29;20349;-77
2021/12/24 14:27:29;;;;;;;;;;;;;;;8.81;100.00;97791.78;4937642;29;19927;-76
2021/12/24 14:39:16;;;;;;;;;;;;;;;9.05;100.00;97772.75;4891893;29;19971;-83
2021/12/24 14:41:44;;;;;;;;;;;;;;;9.07;100.00;97793.38;4914555;28;20278;-82
2021/12/24 14:44:27;;;;;;;;;;;;;;;8.76;100.00;97772.81;4979955;28;19925;-82
2021/12/24 14:46:58;;;;;;;;;;;;;;;8.96;100.00;97776.22;4986355;28;20455;-81
2021/12/24 14:50:23;;;;;;;;;;;;;;;9.23;100.00;97780.56;5003485;28;19926;-81
2021/12/24 14:53:42;;;;;;;;;;;;;;;9.12;100.00;97778.09;5004804;28;19939;-79
2021/12/24 14:56:09;;;;;;;;;;;;;;;8.89;100.00;97781.97;5074707;28;19978;-81
2021/12/24 14:58:44;;;;;;;;;;;;;;;9.08;100.00;97778.25;5089445;28;19925;-80
2021/12/24 15:01:19;;;;;;;;;;;;;;;9.01;100.00;97772.84;5074416;28;20449;-79
2021/12/24 15:03:53;;;;;;;;;;;;;;;8.84;100.00;97782.53;5074746;28;20408;-80
2021/12/24 15:06:29;;;;;;;;;;;;;;;8.86;100.00;97774.50;5055253;28;19931;-79
2021/12/24 15:08:58;;;;;;;;;;;;;;;8.95;100.00;97780.19;5076353;28;19993;-81
2021/12/24 15:11:28;;;;;;;;;;;;;;;9.03;100.00;97786.34;5060492;28;19924;-82
2021/12/24 15:14:01;;;;;;;;;;;;;;;8.97;100.00;97788.13;5060006;28;19924;-82
2021/12/24 15:16:33;;;;;;;;;;;;;;;8.87;100.00;97773.31;5060701;28;19924;-86
2021/12/24 15:19:01;;;;;;;;;;;;;;;8.68;100.00;97784.59;5077325;28;19965;-82
2021/12/24 15:21:30;;;;;;;;;;;;;;;8.70;100.00;97782.94;5056306;28;19932;-82
2021/12/24 15:23:59;;;;;;;;;;;;;;;8.77;100.00;97785.53;5039438;28;19932;-86
2021/12/24 15:26:27;;;;;;;;;;;;;;;8.73;100.00;97789.63;5048111;28;19970;-83
2021/12/24 15:28:56;;;;;;;;;;;;;;;8.68;100.00;97790.16;5094303;28;19978;-82
2021/12/24 15:31:24;;;;;;;;;;;;;;;8.70;100.00;97794.09;5060077;28;19924;-81
2021/12/24 15:33:51;;;;;;;;;;;;;;;8.59;100.00;97790.81;5076105;28;19924;-79
2021/12/24 15:36:19;;;;;;;;;;;;;;;8.74;100.00;97789.19;5076316;28;20427;-80
2021/12/24 15:38:49;;;;;;;;;;;;;;;8.75;100.00;97787.94;5059423;28;20038;-80
2021/12/24 15:41:17;;;;;;;;;;;;;;;8.35;100.00;97791.50;5058384;28;20333;-78
2021/12/24 15:43:47;;;;;;;;;;;;;;;8.47;100.00;97799.13;5085224;28;20619;-79